Time;durP1;ratioP1;P1;durP2;ratioP2;P2;SDS_P1;SDS_P2;PMS_P1;PMS_P2;Temp;Humidity;BMP_temperature;BMP_pressure;BME280_temperature;BME280_humidity;BME280_pressure;Samples;Min_cycle;Max_cycle;Signal;HPM_P1;HPM_P2
2022/12/24 00:00:56;;;;;;;5.60;1.67;;;;;;;10.41;72.61;99780.13;4995502;28;20234;-66
2022/12/24 00:03:23;;;;;;;8.03;1.90;;;;;;;10.35;72.84;99773.03;4994999;28;20255;-65
2022/12/24 00:05:49;;;;;;;10.10;1.93;;;;;;;10.29;73.20;99767.72;4991788;28;20354;-65
2022/12/24 00:08:16;;;;;;;8.03;1.70;;;;;;;10.29;73.73;99773.00;4997570;28;20236;-65
2022/12/24 00:10:42;;;;;;;6.17;1.57;;;;;;;10.24;73.98;99772.97;4996683;28;20214;-65
2022/12/24 00:13:09;;;;;;;7.63;2.00;;;;;;;10.20;74.18;99767.63;4993521;28;20200;-65
2022/12/24 00:15:35;;;;;;;9.43;2.00;;;;;;;10.19;73.89;99763.22;4997075;28;20284;-68
2022/12/24 00:18:01;;;;;;;10.73;2.13;;;;;;;10.11;74.48;99764.94;4992314;28;20216;-65
2022/12/24 00:20:28;;;;;;;10.73;2.17;;;;;;;10.11;74.33;99787.00;4992995;28;20230;-65
2022/12/24 00:22:54;;;;;;;6.13;1.77;;;;;;;10.13;74.23;99784.38;4989249;28;20233;-65
2022/12/24 00:25:20;;;;;;;8.63;1.90;;;;;;;10.11;74.08;99786.13;4987310;28;20209;-66
2022/12/24 00:27:47;;;;;;;7.17;1.63;;;;;;;10.15;73.56;99791.44;4997335;28;20231;-65
2022/12/24 00:30:13;;;;;;;9.53;1.97;;;;;;;10.20;73.06;99797.66;4983502;28;20266;-65
2022/12/24 00:32:39;;;;;;;5.07;1.77;;;;;;;10.21;72.82;99796.78;4990420;28;20206;-65
2022/12/24 00:35:06;;;;;;;8.83;2.27;;;;;;;10.23;72.64;99804.72;4991299;28;20208;-66
2022/12/24 00:37:32;;;;;;;5.80;1.63;;;;;;;10.11;73.22;99802.88;4995056;28;20222;-65
2022/12/24 00:39:59;;;;;;;9.90;2.00;;;;;;;10.13;72.62;99809.06;4984682;28;20198;-65
2022/12/24 00:42:25;;;;;;;6.23;1.73;;;;;;;10.30;71.24;99799.47;4988493;28;20873;-65
2022/12/24 00:44:51;;;;;;;6.60;1.80;;;;;;;10.38;71.04;99806.56;4981813;28;20223;-68
2022/12/24 00:47:18;;;;;;;9.70;2.77;;;;;;;10.25;71.92;99800.31;4985133;28;20216;-66
2022/12/24 00:49:44;;;;;;;6.57;1.53;;;;;;;10.32;71.25;99818.00;4991101;28;20201;-66
2022/12/24 00:52:10;;;;;;;11.13;1.80;;;;;;;10.22;71.66;99808.25;4986248;28;22040;-66
2022/12/24 00:54:36;;;;;;;6.83;1.90;;;;;;;10.14;72.13;99813.47;4992537;28;20227;-65
2022/12/24 00:57:03;;;;;;;6.40;2.30;;;;;;;10.10;71.94;99816.97;4996323;28;20723;-65
2022/12/24 00:59:29;;;;;;;7.93;2.00;;;;;;;10.09;72.21;99806.38;4996548;28;20595;-65
2022/12/24 01:01:55;;;;;;;6.77;1.90;;;;;;;10.01;72.86;99816.94;4995654;28;20212;-65
2022/12/24 01:07:07;;;;;;;11.50;2.10;;;;;;;9.77;73.46;99822.94;4989568;28;20272;-67
2022/12/24 01:09:33;;;;;;;7.57;1.90;;;;;;;9.74;73.75;99833.47;4991796;28;20282;-67
2022/12/24 01:11:59;;;;;;;12.70;1.90;;;;;;;9.73;73.68;99824.66;4989671;28;20727;-65
2022/12/24 01:14:26;;;;;;;8.87;2.03;;;;;;;9.60;73.95;99817.50;4989746;28;20298;-65
2022/12/24 01:16:52;;;;;;;4.70;1.60;;;;;;;9.68;73.62;99836.09;4989013;28;20258;-65
2022/12/24 01:19:18;;;;;;;10.17;2.17;;;;;;;9.66;73.93;99844.00;4986883;28;20224;-65
2022/12/24 01:21:45;;;;;;;5.93;1.70;;;;;;;9.64;73.96;99844.88;4989884;28;20937;-65
2022/12/24 01:24:15;;;;;;;10.13;1.70;;;;;;;9.42;74.74;99838.50;4982349;28;20454;-65
2022/12/24 01:26:42;;;;;;;11.93;2.20;;;;;;;9.55;74.68;99861.50;4987578;28;20230;-66
2022/12/24 01:29:08;;;;;;;11.30;1.87;;;;;;;9.52;75.07;99855.31;4994675;28;20210;-65
2022/12/24 01:31:35;;;;;;;6.83;2.03;;;;;;;9.56;75.26;99862.38;4989728;28;20326;-66
2022/12/24 01:34:01;;;;;;;9.13;1.80;;;;;;;9.57;75.18;99874.72;4984442;28;20195;-65
2022/12/24 01:36:27;;;;;;;10.93;2.27;;;;;;;9.38;76.10;99863.13;4990335;28;20196;-64
2022/12/24 01:38:54;;;;;;;6.73;2.03;;;;;;;9.43;75.92;99880.78;4986289;28;20202;-66
2022/12/24 01:44:26;;;;;;;9.97;1.90;;;;;;;9.39;76.63;99888.69;4986390;28;21218;-65
2022/12/24 01:47:14;;;;;;;10.97;2.47;;;;;;;9.36;76.83;99893.94;4984120;28;20223;-65
2022/12/24 01:50:09;;;;;;;12.30;2.30;;;;;;;9.36;77.04;99899.22;4986416;28;20816;-65
2022/12/24 01:52:35;;;;;;;12.27;2.30;;;;;;;9.25;77.35;99912.31;4983991;28;20292;-66
2022/12/24 01:55:08;;;;;;;12.57;2.97;;;;;;;9.38;77.20;99924.78;4996236;28;20227;-65
2022/12/24 01:57:41;;;;;;;10.93;2.20;;;;;;;9.30;77.55;99921.19;4991779;28;20222;-65
2022/12/24 02:00:12;;;;;;;9.80;2.03;;;;;;;9.24;77.45;99920.22;4984376;28;20208;-66
2022/12/24 02:02:43;;;;;;;12.23;2.10;;;;;;;9.20;78.08;99915.75;4995812;28;20205;-65
2022/12/24 02:05:15;;;;;;;16.60;2.57;;;;;;;9.11;78.22;99917.44;4995145;28;20287;-65
2022/12/24 02:07:42;;;;;;;10.77;2.67;;;;;;;9.08;78.67;99937.66;4989542;28;20273;-65
2022/12/24 02:10:10;;;;;;;6.77;1.80;;;;;;;8.98;79.33;99943.69;4993832;28;20929;-66
2022/12/24 02:12:39;;;;;;;12.00;2.50;;;;;;;8.91;79.74;99953.28;4996348;28;20197;-65
2022/12/24 02:15:09;;;;;;;14.60;2.13;;;;;;;8.83;80.15;99943.50;4987823;28;20253;-65
2022/12/24 02:17:58;;;;;;;11.47;2.43;;;;;;;8.82;80.33;99942.63;4994001;28;20262;-67
2022/12/24 02:20:56;;;;;;;8.63;2.00;;;;;;;8.81;80.25;99946.13;4984617;28;20254;-67
2022/12/24 02:24:01;;;;;;;10.83;2.13;;;;;;;8.70;80.76;99953.88;4986402;28;20230;-67
2022/12/24 02:26:58;;;;;;;9.20;2.00;;;;;;;8.62;81.50;99958.16;4988134;28;20204;-67
2022/12/24 02:29:45;;;;;;;10.50;2.07;;;;;;;8.62;81.36;99960.81;4983701;28;20242;-66
2022/12/24 02:32:23;;;;;;;11.33;2.00;;;;;;;8.55;81.40;99960.69;4981876;28;20346;-67
2022/12/24 02:35:11;;;;;;;11.40;2.10;;;;;;;8.50;81.54;99965.91;4983104;28;20262;-67
2022/12/24 02:37:44;;;;;;;12.50;2.30;;;;;;;8.52;81.88;99960.66;4988464;28;20249;-67
2022/12/24 02:40:17;;;;;;;7.73;1.90;;;;;;;8.50;81.85;99968.56;4986830;28;20605;-68
2022/12/24 02:42:49;;;;;;;17.07;2.23;;;;;;;8.54;81.41;99965.09;4986383;28;20290;-67
2022/12/24 02:45:20;;;;;;;8.83;1.97;;;;;;;8.89;80.78;99975.25;4980061;28;20248;-66
2022/12/24 02:47:48;;;;;;;11.57;2.33;;;;;;;8.74;80.83;99979.44;4984245;28;20644;-68
2022/12/24 02:50:16;;;;;;;9.07;1.93;;;;;;;8.69;81.35;99996.97;4985225;28;20237;-68
2022/12/24 02:52:44;;;;;;;13.07;2.10;;;;;;;8.73;81.38;100001.44;4985518;28;20212;-68
2022/12/24 02:55:34;;;;;;;10.07;2.07;;;;;;;8.67;81.90;99997.81;4989090;28;20227;-68
2022/12/24 02:58:19;;;;;;;8.07;2.07;;;;;;;8.70;82.05;100005.78;4991856;28;20287;-68
2022/12/24 03:01:14;;;;;;;9.60;2.10;;;;;;;8.71;82.26;100008.44;4995504;28;20288;-68
2022/12/24 03:04:12;;;;;;;10.17;1.97;;;;;;;8.68;82.25;100008.41;4991110;28;20217;-67
2022/12/24 03:07:03;;;;;;;12.07;2.17;;;;;;;8.65;82.51;100005.72;4993965;28;20204;-67
2022/12/24 03:09:43;;;;;;;6.60;1.73;;;;;;;8.57;82.94;100010.00;4998259;28;20609;-69
2022/12/24 03:12:15;;;;;;;10.83;2.37;;;;;;;8.62;82.80;100013.59;4983938;28;20220;-68
2022/12/24 03:14:43;;;;;;;8.80;1.87;;;;;;;8.65;82.42;99994.28;4995647;28;20677;-68
2022/12/24 03:17:10;;;;;;;10.67;2.30;;;;;;;8.78;82.18;99999.75;4995482;28;20233;-65
2022/12/24 03:19:36;;;;;;;11.90;2.00;;;;;;;8.88;82.04;100018.38;4996444;28;20208;-65
2022/12/24 03:22:08;;;;;;;5.90;1.97;;;;;;;8.87;82.03;100014.84;4994313;28;20650;-68
2022/12/24 03:24:35;;;;;;;12.37;2.03;;;;;;;8.94;81.98;100011.44;4991330;28;20662;-67
2022/12/24 03:27:04;;;;;;;10.33;2.00;;;;;;;9.04;80.67;100013.31;4993813;28;20231;-65
2022/12/24 03:29:31;;;;;;;11.23;2.17;;;;;;;9.15;80.56;100020.50;4987110;28;20205;-65
2022/12/24 03:32:02;;;;;;;9.83;2.20;;;;;;;9.15;80.40;100015.22;4990952;28;20215;-66
2022/12/24 03:34:29;;;;;;;5.80;1.80;;;;;;;9.12;80.71;100026.63;4996878;28;20199;-66
2022/12/24 03:36:55;;;;;;;11.30;1.67;;;;;;;9.11;80.83;100031.03;4999399;28;20952;-67
2022/12/24 03:39:22;;;;;;;6.53;1.90;;;;;;;9.02;81.09;100048.50;4993556;28;20572;-66
2022/12/24 03:41:48;;;;;;;9.33;1.80;;;;;;;8.83;81.47;100026.25;4993888;28;20739;-66
2022/12/24 03:44:15;;;;;;;9.27;2.10;;;;;;;8.96;82.21;100053.69;4993739;28;20286;-66
2022/12/24 03:46:41;;;;;;;7.00;1.70;;;;;;;9.14;81.51;100046.03;4994882;28;20204;-67
2022/12/24 03:49:08;;;;;;;7.00;2.50;;;;;;;9.20;81.37;100040.81;4991319;28;20656;-66
2022/12/24 03:51:34;;;;;;;7.37;1.90;;;;;;;9.26;80.77;100051.50;4995748;28;20254;-68
2022/12/24 03:54:00;;;;;;;7.67;1.70;;;;;;;9.30;80.58;100039.22;5000435;28;20200;-67
2022/12/24 03:56:30;;;;;;;7.57;2.03;;;;;;;9.33;80.58;100047.16;4992937;28;20668;-66
2022/12/24 03:58:56;;;;;;;6.80;2.17;;;;;;;9.39;80.40;100058.69;4994789;28;20538;-65
2022/12/24 04:01:23;;;;;;;11.57;1.80;;;;;;;9.32;80.53;100048.03;4993312;28;20219;-66
2022/12/24 04:03:49;;;;;;;7.23;1.77;;;;;;;9.41;80.42;100051.69;4994533;28;20195;-66
2022/12/24 04:06:16;;;;;;;10.23;2.00;;;;;;;9.44;80.14;100066.69;4989796;28;20207;-66
2022/12/24 04:08:43;;;;;;;9.97;2.17;;;;;;;9.50;80.11;100071.16;4987690;28;20644;-66
2022/12/24 04:11:13;;;;;;;15.03;2.03;;;;;;;9.54;79.96;100067.69;4992874;28;20248;-66
2022/12/24 04:13:39;;;;;;;9.70;2.20;;;;;;;9.55;80.02;100065.06;4983394;28;20201;-65
2022/12/24 04:16:09;;;;;;;11.37;2.03;;;;;;;9.53;80.08;100069.44;4993057;28;20210;-65
2022/12/24 04:18:36;;;;;;;8.43;2.00;;;;;;;9.53;80.45;100073.84;4990381;28;20229;-68
2022/12/24 04:21:03;;;;;;;13.43;2.30;;;;;;;9.58;79.82;100077.41;4994354;28;20200;-66
2022/12/24 04:23:31;;;;;;;10.10;2.50;;;;;;;9.60;79.74;100075.69;4989856;28;20675;-66
2022/12/24 04:26:05;;;;;;;10.57;2.00;;;;;;;9.64;79.35;100070.47;4992763;28;20287;-66
2022/12/24 04:28:32;;;;;;;7.67;2.13;;;;;;;9.66;79.37;100068.75;4991144;28;20304;-66
2022/12/24 04:31:00;;;;;;;10.70;2.10;;;;;;;9.58;79.44;100073.03;4991098;28;20215;-67
2022/12/24 04:33:27;;;;;;;10.87;2.03;;;;;;;9.54;79.66;100073.84;4988494;28;20702;-67
2022/12/24 04:35:57;;;;;;;10.60;2.50;;;;;;;9.49;79.88;100077.31;4993687;28;20245;-66
2022/12/24 04:38:23;;;;;;;9.00;2.07;;;;;;;9.37;80.15;100078.94;4993638;28;20318;-66
2022/12/24 04:41:00;;;;;;;11.87;2.60;;;;;;;9.31;80.11;100070.94;4995076;28;20220;-66
2022/12/24 04:43:27;;;;;;;11.27;2.30;;;;;;;9.14;80.67;100075.09;4985890;28;20201;-65
2022/12/24 04:45:54;;;;;;;11.80;2.40;;;;;;;9.01;81.28;100079.31;4991819;28;20287;-66
2022/12/24 04:48:21;;;;;;;13.43;2.20;;;;;;;9.05;81.29;100080.25;4988678;28;20356;-65
2022/12/24 04:50:47;;;;;;;11.27;2.00;;;;;;;9.15;80.87;100086.53;4995003;28;20227;-66
2022/12/24 04:53:13;;;;;;;13.23;2.20;;;;;;;9.18;80.48;100095.38;4989891;28;20211;-67
2022/12/24 04:55:44;;;;;;;12.33;2.00;;;;;;;9.22;80.29;100101.63;4995059;28;20735;-67
2022/12/24 04:58:11;;;;;;;10.23;2.10;;;;;;;9.36;79.85;100085.09;4989660;28;20215;-66
2022/12/24 05:00:39;;;;;;;6.60;1.83;;;;;;;9.27;79.80;100086.72;4997105;28;20285;-66
2022/12/24 05:03:06;;;;;;;11.47;1.90;;;;;;;9.19;80.42;100091.88;4993519;28;20262;-67
2022/12/24 05:05:32;;;;;;;7.20;2.07;;;;;;;9.17;80.58;100088.34;4998447;28;20212;-65
2022/12/24 05:07:58;;;;;;;10.43;2.30;;;;;;;9.07;81.02;100099.63;4989889;28;20281;-66
2022/12/24 05:10:25;;;;;;;8.70;1.90;;;;;;;8.79;81.52;100086.00;4994712;28;20260;-67
2022/12/24 05:12:51;;;;;;;11.57;2.40;;;;;;;8.79;82.46;100093.03;4993091;28;20308;-66
2022/12/24 05:15:18;;;;;;;10.77;2.00;;;;;;;8.72;82.72;100107.91;4989258;28;20226;-65
2022/12/24 05:17:44;;;;;;;6.97;1.80;;;;;;;8.69;83.07;100105.22;4992334;28;20228;-67
2022/12/24 05:20:10;;;;;;;6.80;2.57;;;;;;;8.70;83.18;100108.75;4991463;28;20614;-66
2022/12/24 05:28:07;;;;;;;8.00;2.00;;;;;;;8.64;83.51;100093.69;4985009;28;20255;-65
2022/12/24 05:30:33;;;;;;;9.83;1.90;;;;;;;8.58;83.86;100098.88;4988961;28;20234;-65
2022/12/24 05:33:00;;;;;;;9.53;2.33;;;;;;;8.56;84.04;100092.69;4987068;28;20790;-65
2022/12/24 05:35:26;;;;;;;12.27;2.80;;;;;;;8.49;84.40;100104.00;4986989;28;20263;-65
2022/12/24 05:37:56;;;;;;;10.70;2.30;;;;;;;8.48;84.45;100099.59;4989760;28;20227;-67
2022/12/24 05:40:23;;;;;;;9.10;2.60;;;;;;;8.45;84.91;100095.16;4989765;28;20661;-68
2022/12/24 05:42:49;;;;;;;6.40;2.67;;;;;;;8.35;84.75;100098.47;4991898;28;20241;-65
2022/12/24 05:45:16;;;;;;;11.17;2.63;;;;;;;8.30;85.12;100105.38;4988347;28;20588;-65
2022/12/24 05:47:42;;;;;;;13.13;2.60;;;;;;;8.30;85.51;100096.59;4991114;28;20245;-65
2022/12/24 05:50:09;;;;;;;10.33;2.20;;;;;;;8.41;85.70;100109.16;4990612;28;20258;-65
2022/12/24 05:52:35;;;;;;;6.23;2.10;;;;;;;8.42;85.17;100115.31;4988625;28;20282;-65
2022/12/24 05:55:02;;;;;;;11.47;2.80;;;;;;;8.45;85.30;100115.38;4989103;28;20192;-66
2022/12/24 05:57:28;;;;;;;10.27;2.37;;;;;;;8.42;85.14;100117.97;4989297;28;20219;-66
2022/12/24 05:59:55;;;;;;;6.30;2.13;;;;;;;8.39;85.44;100110.84;4989228;28;22581;-65
2022/12/24 06:02:21;;;;;;;12.20;2.10;;;;;;;8.42;85.82;100115.31;4990084;28;20220;-67
2022/12/24 06:04:48;;;;;;;9.00;2.30;;;;;;;8.41;85.22;100111.81;4992711;28;20787;-66
2022/12/24 06:07:14;;;;;;;7.87;2.53;;;;;;;8.53;85.04;100113.75;4990642;28;20765;-67
2022/12/24 06:09:40;;;;;;;12.03;2.37;;;;;;;8.50;85.23;100113.72;4991751;28;20199;-66
2022/12/24 06:12:07;;;;;;;8.90;2.10;;;;;;;8.55;84.72;100112.03;4990236;28;20216;-67
2022/12/24 06:14:33;;;;;;;10.77;2.10;;;;;;;8.56;84.63;100115.56;4993332;28;20587;-64
2022/12/24 06:16:59;;;;;;;6.93;1.83;;;;;;;8.63;84.61;100122.72;4984799;28;20247;-65
2022/12/24 06:19:26;;;;;;;9.33;1.90;;;;;;;8.72;84.02;100129.03;4991332;28;20224;-65
2022/12/24 06:21:52;;;;;;;9.17;2.30;;;;;;;8.84;83.27;100135.38;4990071;28;20330;-66
2022/12/24 06:24:18;;;;;;;9.77;2.10;;;;;;;8.74;83.59;100126.41;4985644;28;20205;-66
2022/12/24 06:26:45;;;;;;;11.90;2.00;;;;;;;8.70;83.80;100127.22;4993320;28;20196;-66
2022/12/24 06:29:11;;;;;;;10.77;2.10;;;;;;;8.69;83.63;100131.63;4991307;28;20207;-67
2022/12/24 06:31:37;;;;;;;10.27;2.10;;;;;;;8.72;83.66;100136.06;4988853;28;20316;-65
2022/12/24 06:34:03;;;;;;;17.53;2.60;;;;;;;8.66;83.98;100128.94;4988548;28;20194;-66
2022/12/24 06:36:30;;;;;;;14.97;2.20;;;;;;;8.66;84.31;100144.75;4990212;28;20194;-67
2022/12/24 06:38:56;;;;;;;11.33;2.43;;;;;;;8.65;84.24;100140.34;4990842;28;20204;-66
2022/12/24 06:41:23;;;;;;;8.07;2.60;;;;;;;8.60;84.23;100120.91;4989754;28;20251;-66
2022/12/24 06:43:51;;;;;;;8.60;2.33;;;;;;;8.78;83.97;100150.25;4990164;28;20230;-66
2022/12/24 06:46:19;;;;;;;8.63;2.37;;;;;;;8.80;84.14;100144.97;4990511;28;20744;-66
2022/12/24 06:48:46;;;;;;;10.70;2.40;;;;;;;8.76;83.86;100141.41;4994087;28;20227;-65
2022/12/24 06:51:15;;;;;;;8.40;2.07;;;;;;;8.75;83.74;100134.34;4991298;28;20204;-66
2022/12/24 06:53:42;;;;;;;8.87;2.20;;;;;;;8.76;84.00;100154.59;4995654;28;20211;-65
2022/12/24 06:56:11;;;;;;;12.93;2.73;;;;;;;8.69;83.98;100150.09;4990341;28;20203;-66
2022/12/24 06:58:37;;;;;;;8.57;2.00;;;;;;;8.62;84.48;100166.69;4984243;28;20228;-66
2022/12/24 07:01:05;;;;;;;8.80;2.70;;;;;;;8.62;84.44;100166.69;4986737;28;20195;-66
2022/12/24 07:03:31;;;;;;;11.50;2.70;;;;;;;8.57;84.83;100163.09;4990378;28;20261;-67
2022/12/24 07:05:58;;;;;;;10.67;2.30;;;;;;;8.59;84.95;100171.03;4988655;28;20618;-65
2022/12/24 07:08:25;;;;;;;13.17;2.90;;;;;;;8.57;84.95;100165.72;4992317;28;20219;-65
2022/12/24 07:10:52;;;;;;;11.33;2.90;;;;;;;8.58;84.94;100164.88;4987786;28;20253;-65
2022/12/24 07:13:20;;;;;;;10.23;3.20;;;;;;;8.59;85.18;100184.22;4987732;28;20226;-65
2022/12/24 07:15:46;;;;;;;10.27;2.60;;;;;;;8.65;85.10;100179.94;4984051;28;20199;-65
2022/12/24 07:18:13;;;;;;;7.83;2.40;;;;;;;8.68;85.16;100195.84;4992790;28;20224;-65
2022/12/24 07:20:41;;;;;;;12.60;2.60;;;;;;;8.67;85.39;100191.41;4993090;28;20264;-65
2022/12/24 07:23:08;;;;;;;13.87;2.90;;;;;;;8.73;85.22;100191.53;4986740;28;20572;-67
2022/12/24 07:25:34;;;;;;;12.13;3.17;;;;;;;8.79;85.21;100196.91;4993633;28;20254;-66
2022/12/24 07:28:00;;;;;;;11.23;2.63;;;;;;;8.79;85.27;100201.28;4987792;28;20715;-65
2022/12/24 07:30:26;;;;;;;12.87;3.20;;;;;;;8.79;84.68;100199.53;4993507;28;20203;-65
2022/12/24 07:32:53;;;;;;;12.77;2.93;;;;;;;8.83;84.51;100199.63;4985549;28;20226;-67
2022/12/24 07:35:19;;;;;;;11.07;2.83;;;;;;;8.94;84.27;100205.97;4990178;28;20202;-67
2022/12/24 07:37:45;;;;;;;13.37;3.10;;;;;;;9.00;84.18;100222.81;4991182;28;20232;-65
2022/12/24 07:40:12;;;;;;;14.07;3.17;;;;;;;9.12;83.69;100216.81;4989716;28;20212;-65
2022/12/24 07:42:38;;;;;;;11.67;3.37;;;;;;;9.08;83.65;100215.00;4992005;28;20280;-67
2022/12/24 07:45:05;;;;;;;14.97;3.80;;;;;;;9.07;83.82;100221.16;4992451;28;20227;-67
2022/12/24 07:47:31;;;;;;;15.03;3.30;;;;;;;9.05;83.77;100218.47;4989662;28;20220;-65
2022/12/24 07:49:58;;;;;;;16.10;2.80;;;;;;;9.13;84.17;100234.47;4995464;28;20228;-65
2022/12/24 07:52:24;;;;;;;12.40;2.97;;;;;;;9.20;83.83;100224.88;4995935;28;20223;-65
2022/12/24 07:54:50;;;;;;;10.53;2.47;;;;;;;9.25;83.54;100228.50;4990436;28;20303;-66
2022/12/24 07:57:17;;;;;;;9.60;2.53;;;;;;;9.27;83.52;100243.53;4989864;28;20273;-67
2022/12/24 07:59:43;;;;;;;13.63;2.73;;;;;;;9.27;83.65;100235.59;4991794;28;20208;-66
2022/12/24 08:02:10;;;;;;;15.37;3.10;;;;;;;9.29;83.55;100243.53;4993014;28;20206;-65
2022/12/24 08:04:43;;;;;;;14.37;2.70;;;;;;;9.31;83.61;100249.75;5002402;28;20226;-65
2022/12/24 08:07:10;;;;;;;14.30;2.87;;;;;;;9.39;82.84;100243.72;5014164;28;20222;-65
2022/12/24 08:09:38;;;;;;;14.60;2.80;;;;;;;9.39;82.95;100253.38;5016124;28;20629;-65
2022/12/24 08:12:05;;;;;;;10.20;2.60;;;;;;;9.42;83.29;100274.59;5013211;28;20262;-65
2022/12/24 08:14:31;;;;;;;16.23;2.90;;;;;;;9.49;83.13;100263.22;5012454;28;20299;-66
2022/12/24 08:16:57;;;;;;;13.30;2.70;;;;;;;9.41;83.40;100263.13;5010540;28;20220;-66
2022/12/24 08:19:24;;;;;;;15.30;2.73;;;;;;;9.41;83.24;100273.69;5015199;28;20226;-66
2022/12/24 08:21:50;;;;;;;17.80;3.03;;;;;;;9.42;83.88;100272.81;5014678;28;20197;-68
2022/12/24 08:24:16;;;;;;;15.67;3.33;;;;;;;9.41;84.37;100260.47;5012647;28;20648;-65
2022/12/24 08:26:43;;;;;;;14.93;2.93;;;;;;;9.34;84.18;100266.53;5008530;28;20673;-65
2022/12/24 08:29:09;;;;;;;12.33;3.07;;;;;;;9.43;84.99;100261.38;5015464;28;20249;-66
2022/12/24 08:31:35;;;;;;;19.17;3.40;;;;;;;9.41;85.32;100267.50;5011470;28;20211;-66
2022/12/24 08:34:06;;;;;;;14.37;3.33;;;;;;;9.45;85.51;100279.03;5015889;28;20233;-66
2022/12/24 08:36:34;;;;;;;13.87;3.27;;;;;;;9.47;85.55;100280.81;5013869;28;20594;-67
2022/12/24 08:39:02;;;;;;;14.47;3.90;;;;;;;9.46;85.57;100286.97;5010204;28;20258;-67
2022/12/24 08:41:30;;;;;;;12.17;3.07;;;;;;;9.45;85.63;100289.59;5008285;28;20211;-66
2022/12/24 08:43:56;;;;;;;13.43;3.77;;;;;;;9.31;85.95;100276.16;5011931;28;20191;-65
2022/12/24 08:46:23;;;;;;;14.40;3.70;;;;;;;9.39;86.63;100290.38;5014103;28;20192;-67
2022/12/24 08:48:49;;;;;;;15.73;3.50;;;;;;;9.37;86.72;100295.66;5012799;28;20218;-65
2022/12/24 08:51:17;;;;;;;16.40;3.13;;;;;;;9.63;86.13;100297.84;5012065;28;20202;-67
2022/12/24 08:53:47;;;;;;;13.77;3.27;;;;;;;9.44;86.21;100299.28;5009385;28;20628;-66
2022/12/24 08:56:15;;;;;;;12.53;2.80;;;;;;;9.46;86.72;100302.84;5013566;28;20725;-67
2022/12/24 08:58:41;;;;;;;14.23;2.97;;;;;;;9.34;87.41;100314.09;5008928;28;20219;-65
2022/12/24 09:01:16;;;;;;;12.97;3.03;;;;;;;9.24;87.34;100308.66;5009776;28;20208;-66
2022/12/24 09:03:43;;;;;;;14.30;3.20;;;;;;;9.22;88.09;100313.00;4990542;28;20197;-68
2022/12/24 09:06:10;;;;;;;14.07;3.10;;;;;;;9.33;88.28;100312.31;5014045;28;20192;-68
2022/12/24 09:08:36;;;;;;;16.03;2.80;;;;;;;9.49;87.59;100318.75;5010548;28;20231;-68
2022/12/24 09:11:05;;;;;;;19.27;3.40;;;;;;;9.50;87.43;100323.16;5010058;28;20239;-71
2022/12/24 09:13:32;;;;;;;15.70;3.27;;;;;;;9.42;87.93;100319.50;5004160;28;20222;-66
2022/12/24 09:15:59;;;;;;;16.83;3.27;;;;;;;9.49;87.78;100337.25;5008031;28;20199;-66
2022/12/24 09:18:25;;;;;;;13.17;3.23;;;;;;;9.46;87.81;100331.91;5009929;28;20671;-69
2022/12/24 09:21:01;;;;;;;15.97;3.37;;;;;;;9.48;87.86;100329.28;5013221;28;20199;-66
2022/12/24 09:23:28;;;;;;;17.13;3.70;;;;;;;9.47;87.96;100338.09;5008937;28;20223;-66
2022/12/24 09:25:55;;;;;;;13.83;4.13;;;;;;;9.46;88.46;100334.56;5007409;28;20657;-67
2022/12/24 09:28:22;;;;;;;13.87;3.60;;;;;;;9.55;88.59;100340.00;5009578;28;20227;-67
2022/12/24 09:30:59;;;;;;;14.53;3.70;;;;;;;9.72;88.16;100337.63;5009825;28;20211;-67
2022/12/24 09:33:32;;;;;;;11.87;3.57;;;;;;;9.73;87.79;100350.00;5012818;28;20241;-69
2022/12/24 09:35:59;;;;;;;18.43;3.83;;;;;;;9.71;87.83;100349.97;5012902;28;20695;-67
2022/12/24 09:38:25;;;;;;;14.70;3.50;;;;;;;9.69;88.24;100346.41;5008396;28;20227;-66
2022/12/24 09:40:54;;;;;;;17.03;4.70;;;;;;;9.89;87.76;100361.69;5007780;28;20279;-65
2022/12/24 09:43:22;;;;;;;14.27;4.00;;;;;;;9.78;87.30;100356.25;5011462;28;20250;-67
2022/12/24 09:45:59;;;;;;;12.80;3.83;;;;;;;9.75;87.74;100356.19;5004691;28;20201;-66
2022/12/24 09:48:32;;;;;;;12.60;3.50;;;;;;;9.78;88.23;100356.25;5008892;28;20216;-66
2022/12/24 09:51:24;;;;;;;15.27;4.77;;;;;;;10.16;87.49;100355.94;5012174;28;20207;-66
2022/12/24 09:53:56;;;;;;;12.07;3.73;;;;;;;10.36;86.64;100359.78;5010241;28;20235;-66
2022/12/24 09:56:27;;;;;;;14.93;3.37;;;;;;;10.43;85.65;100355.47;5004659;28;20706;-66
2022/12/24 09:58:58;;;;;;;17.37;3.80;;;;;;;10.46;85.10;100361.69;5009953;28;20738;-68
2022/12/24 10:01:25;;;;;;;16.73;3.40;;;;;;;10.50;85.58;100360.88;5012333;28;20196;-66
2022/12/24 10:03:52;;;;;;;19.13;3.80;;;;;;;10.54;85.15;100383.88;5012231;28;20682;-67
2022/12/24 10:06:22;;;;;;;21.27;3.63;;;;;;;10.44;84.31;100368.75;5006796;28;20197;-67
2022/12/24 10:09:33;;;;;;;16.30;3.90;;;;;;;10.39;84.87;100383.63;5005810;28;20207;-66
2022/12/24 10:12:12;;;;;;;13.37;3.50;;;;;;;10.14;85.40;100355.03;5008458;28;20242;-66
2022/12/24 10:15:02;;;;;;;15.70;3.87;;;;;;;10.22;85.81;100390.47;5007433;28;20245;-67
2022/12/24 10:17:34;;;;;;;20.57;4.20;;;;;;;10.28;86.43;100387.91;5007815;28;20877;-66
2022/12/24 10:20:22;;;;;;;20.53;4.10;;;;;;;10.47;85.53;100389.97;5010620;28;20246;-68
2022/12/24 10:23:08;;;;;;;15.67;3.30;;;;;;;10.71;85.24;100392.03;5003907;28;21179;-66
2022/12/24 10:25:52;;;;;;;15.63;3.77;;;;;;;11.01;83.65;100399.47;5004474;28;21341;-66
2022/12/24 10:28:30;;;;;;;19.87;4.33;;;;;;;11.38;82.55;100383.97;4995505;28;20248;-66
2022/12/24 10:31:03;;;;;;;12.17;3.43;;;;;;;11.61;81.48;100388.63;5012873;28;20210;-67
2022/12/24 10:33:39;;;;;;;13.83;3.10;;;;;;;11.83;81.46;100381.75;5004922;28;20677;-68
2022/12/24 10:36:10;;;;;;;14.17;2.87;;;;;;;12.11;80.13;100381.97;4998623;28;20548;-67
2022/12/24 10:38:38;;;;;;;11.17;2.90;;;;;;;12.36;78.25;100390.97;5008456;28;20222;-70
2022/12/24 10:41:05;;;;;;;14.73;3.03;;;;;;;12.55;75.71;100391.09;5010283;28;20278;-71
2022/12/24 10:43:32;;;;;;;13.30;2.90;;;;;;;12.63;75.55;100400.88;5005933;28;20260;-74
2022/12/24 10:46:02;;;;;;;11.67;2.67;;;;;;;12.51;75.45;100401.72;5003067;28;20195;-77
2022/12/24 10:48:35;;;;;;;12.63;3.10;;;;;;;12.54;76.14;100397.28;5013440;28;20220;-78
2022/12/24 10:51:14;;;;;;;13.40;3.13;;;;;;;12.68;76.22;100396.47;5010943;28;20201;-74
2022/12/24 10:53:46;;;;;;;12.33;3.20;;;;;;;12.73;76.47;100387.63;5009648;28;20301;-79
2022/12/24 10:56:17;;;;;;;17.03;2.93;;;;;;;12.80;75.73;100399.19;5008557;28;20254;-79
2022/12/24 10:58:49;;;;;;;12.20;3.20;;;;;;;12.89;76.15;100406.31;5012694;28;20643;-74
2022/12/24 11:01:16;;;;;;;14.37;3.30;;;;;;;12.90;74.90;100402.78;5009766;28;20211;-73
2022/12/24 11:03:42;;;;;;;18.97;3.63;;;;;;;12.86;74.84;100407.22;5008235;28;20274;-72
2022/12/24 11:06:17;;;;;;;13.60;2.87;;;;;;;12.80;74.23;100404.50;5007334;28;20684;-72
2022/12/24 11:08:44;;;;;;;12.63;3.13;;;;;;;12.75;74.61;100415.09;5008773;28;20295;-72
2022/12/24 11:11:14;;;;;;;15.03;3.50;;;;;;;12.64;74.98;100397.34;5012879;28;20203;-70
2022/12/24 11:13:52;;;;;;;16.17;3.23;;;;;;;12.58;75.83;100406.16;5008655;28;20236;-70
2022/12/24 11:16:29;;;;;;;20.07;3.67;;;;;;;12.46;76.04;100409.66;5012139;28;20642;-72
2022/12/24 11:18:58;;;;;;;14.37;3.27;;;;;;;12.38;76.57;100407.81;5015010;28;20211;-72
2022/12/24 11:21:27;;;;;;;12.30;3.60;;;;;;;12.30;77.28;100409.53;5012839;28;20211;-71
2022/12/24 11:23:57;;;;;;;17.27;4.10;;;;;;;12.31;77.51;100406.00;5013191;28;20201;-72
2022/12/24 11:26:27;;;;;;;13.73;3.63;;;;;;;12.44;77.16;100416.72;5008876;28;20200;-73
2022/12/24 11:29:14;;;;;;;15.03;3.10;;;;;;;12.50;76.59;100416.75;5058841;23;20720;-71
2022/12/24 11:31:41;;;;;;;15.37;3.43;;;;;;;12.59;76.10;100412.38;5068798;28;20202;-69
2022/12/24 11:34:26;;;;;;;14.40;3.20;;;;;;;12.63;75.93;100416.81;5071863;28;20210;-68
2022/12/24 11:36:55;;;;;;;14.73;3.60;;;;;;;12.73;75.73;100406.22;5067128;28;20229;-70
2022/12/24 11:39:24;;;;;;;14.23;3.03;;;;;;;12.92;75.68;100406.34;5067524;28;20245;-71
2022/12/24 11:41:52;;;;;;;13.30;3.33;;;;;;;13.04;74.51;100399.28;5063688;28;20191;-69
2022/12/24 11:44:24;;;;;;;11.80;2.83;;;;;;;13.18;73.74;100402.91;5067133;28;20723;-70
2022/12/24 11:46:55;;;;;;;19.57;3.77;;;;;;;13.09;73.66;100399.31;5066858;28;20198;-70
2022/12/24 11:49:25;;;;;;;12.00;2.83;;;;;;;13.15;74.00;100405.53;5066540;28;20226;-70